Aeroporto :
LOGIN :

Iscrizione | Disclaimer

   EN    FR    IT 

 










Sommario :    VFR   VFR Marginale   IFR   IFR Intensivo   IFR Molto Intensivo
Visibilità : 
Base nubi : 
>= 8 km
>= 3000ft
5 / 8 km
1000 / 3000 ft
1500m / 5 km
500 / 1000 ft
800 / 1500m
200 / 500 ft
< 800m
< 200 ft
Simboli :   Temporali  Nebbia  Neve Forte  Precipitazioni Forti  Vento > 20 kt
SIGMETs :   Varie  Temporali  Ghiacco  Turbolenza  Onda orograficha  Ceneri Vulcaniche






- Altitudine del aeroporto : 939 ft


LKKB - Kbely Air Base

ULTIMO METAR :
  • 050730Z 24011KT 9999 FEW016 BKN035 OVC100 15/11 Q0997 NOSIG

METARs OBSOLETI :
  • 050700Z 24012KT 9999 FEW016 BKN035 OVC100 14/11 Q0996 NOSIG
  • 050630Z 22012KT 9999 -RA FEW015 OVC100 14/11 Q0996 NOSIG
  • 050600Z 22010KT 9999 FEW045 BKN100 14/11 Q0996 NOSIG
  • 050530Z 22011KT CAVOK 14/11 Q0995 NOSIG
  • 050500Z 22010KT CAVOK 14/11 Q0995 NOSIG

TAF TAF LKKB
Valido dal 05 a 06 ore il 06 a 06 ore UTC


050500Z 0506/0606 24008KT 9999 SCT040
PROB30
TEMPO 0506/0512 6000 SHRA FEW030TCU BKN040
TEMPO 0511/0520 27010G20KT
BECMG 0520/0523 8000 RA BKN025



MetMap, La meteo Aeronautica in un colpo d'occhio ! - Copyright ORBIFLY Dicembre 2007 - Disclaimer

ORBIFLY MET'MAP TEAM :

Programmazione e sviluppo : Alexandra Zaïnal
Concezione : Baudouin d'Aumeries
Aiuto per la programmazione : Marc-Olivier Méhu
Supporto tecnico e logistico : Manuel Goepfert
Aiuto per la traduzione : Arnaldo La Scala

Contatto : metmap@orbifly.com




FONTI E CREDITI :

   NOAA